sensor_id;sensor_type;location;lat;lon;timestamp;P1;durP1;ratioP1;P2;durP2;ratioP2
16514;SDS011;8370;52.556;7.970;2023-05-07T00:02:24;27.53;;;15.53;;
16514;SDS011;8370;52.556;7.970;2023-05-07T00:04:50;27.27;;;15.57;;
16514;SDS011;8370;52.556;7.970;2023-05-07T00:07:17;35.17;;;18.27;;
16514;SDS011;8370;52.556;7.970;2023-05-07T00:09:42;29.07;;;15.50;;
16514;SDS011;8370;52.556;7.970;2023-05-07T00:12:08;37.10;;;17.33;;
16514;SDS011;8370;52.556;7.970;2023-05-07T00:14:33;29.27;;;17.00;;
16514;SDS011;8370;52.556;7.970;2023-05-07T00:16:59;30.13;;;17.17;;
16514;SDS011;8370;52.556;7.970;2023-05-07T00:19:24;30.67;;;17.57;;
16514;SDS011;8370;52.556;7.970;2023-05-07T00:21:50;32.27;;;17.63;;
16514;SDS011;8370;52.556;7.970;2023-05-07T00:24:18;37.43;;;19.13;;
16514;SDS011;8370;52.556;7.970;2023-05-07T00:26:43;33.60;;;17.33;;
16514;SDS011;8370;52.556;7.970;2023-05-07T00:29:09;33.60;;;18.17;;
16514;SDS011;8370;52.556;7.970;2023-05-07T00:31:35;38.90;;;19.23;;
16514;SDS011;8370;52.556;7.970;2023-05-07T00:34:01;34.50;;;18.87;;
16514;SDS011;8370;52.556;7.970;2023-05-07T00:36:26;37.80;;;18.67;;
16514;SDS011;8370;52.556;7.970;2023-05-07T00:38:53;38.70;;;20.20;;
16514;SDS011;8370;52.556;7.970;2023-05-07T00:41:20;36.93;;;20.53;;
16514;SDS011;8370;52.556;7.970;2023-05-07T00:43:46;36.83;;;20.90;;
16514;SDS011;8370;52.556;7.970;2023-05-07T00:46:11;36.83;;;20.13;;
16514;SDS011;8370;52.556;7.970;2023-05-07T00:48:38;35.60;;;19.60;;
16514;SDS011;8370;52.556;7.970;2023-05-07T00:51:03;36.93;;;21.47;;
16514;SDS011;8370;52.556;7.970;2023-05-07T00:53:30;39.10;;;21.50;;
16514;SDS011;8370;52.556;7.970;2023-05-07T00:55:55;35.00;;;20.33;;
16514;SDS011;8370;52.556;7.970;2023-05-07T00:58:21;44.23;;;22.37;;
16514;SDS011;8370;52.556;7.970;2023-05-07T01:00:48;39.57;;;21.53;;
16514;SDS011;8370;52.556;7.970;2023-05-07T01:03:13;38.27;;;20.37;;
16514;SDS011;8370;52.556;7.970;2023-05-07T01:05:39;37.30;;;21.80;;
16514;SDS011;8370;52.556;7.970;2023-05-07T01:08:05;41.03;;;20.87;;
16514;SDS011;8370;52.556;7.970;2023-05-07T01:10:31;38.60;;;20.03;;
16514;SDS011;8370;52.556;7.970;2023-05-07T01:12:57;40.30;;;20.43;;
16514;SDS011;8370;52.556;7.970;2023-05-07T01:15:25;38.37;;;21.60;;
16514;SDS011;8370;52.556;7.970;2023-05-07T01:17:50;40.67;;;20.80;;
16514;SDS011;8370;52.556;7.970;2023-05-07T01:20:17;39.93;;;21.47;;
16514;SDS011;8370;52.556;7.970;2023-05-07T01:22:43;35.20;;;20.70;;
16514;SDS011;8370;52.556;7.970;2023-05-07T01:25:09;37.30;;;20.60;;
16514;SDS011;8370;52.556;7.970;2023-05-07T01:27:35;35.67;;;20.07;;
16514;SDS011;8370;52.556;7.970;2023-05-07T01:30:02;37.47;;;20.43;;
16514;SDS011;8370;52.556;7.970;2023-05-07T01:35:32;37.43;;;21.27;;
16514;SDS011;8370;52.556;7.970;2023-05-07T01:38:01;32.40;;;19.63;;
16514;SDS011;8370;52.556;7.970;2023-05-07T01:40:29;38.50;;;20.77;;
16514;SDS011;8370;52.556;7.970;2023-05-07T01:42:55;34.30;;;19.20;;
16514;SDS011;8370;52.556;7.970;2023-05-07T01:45:21;36.20;;;19.73;;
16514;SDS011;8370;52.556;7.970;2023-05-07T01:47:46;34.97;;;20.40;;
16514;SDS011;8370;52.556;7.970;2023-05-07T01:50:12;30.37;;;17.73;;
16514;SDS011;8370;52.556;7.970;2023-05-07T01:52:42;33.00;;;19.03;;
16514;SDS011;8370;52.556;7.970;2023-05-07T01:55:07;31.70;;;18.77;;
16514;SDS011;8370;52.556;7.970;2023-05-07T01:57:33;32.10;;;18.47;;
16514;SDS011;8370;52.556;7.970;2023-05-07T01:59:59;32.77;;;18.40;;
16514;SDS011;8370;52.556;7.970;2023-05-07T02:02:24;29.97;;;17.80;;
16514;SDS011;8370;52.556;7.970;2023-05-07T02:04:50;33.67;;;18.27;;
16514;SDS011;8370;52.556;7.970;2023-05-07T02:07:15;30.10;;;18.73;;
16514;SDS011;8370;52.556;7.970;2023-05-07T02:09:41;32.23;;;17.90;;
16514;SDS011;8370;52.556;7.970;2023-05-07T02:12:06;30.30;;;16.87;;
16514;SDS011;8370;52.556;7.970;2023-05-07T02:14:32;28.53;;;17.37;;
16514;SDS011;8370;52.556;7.970;2023-05-07T02:16:57;31.13;;;17.20;;
16514;SDS011;8370;52.556;7.970;2023-05-07T02:19:23;25.37;;;16.00;;
16514;SDS011;8370;52.556;7.970;2023-05-07T02:21:48;30.43;;;18.27;;
16514;SDS011;8370;52.556;7.970;2023-05-07T02:24:14;28.80;;;17.00;;
16514;SDS011;8370;52.556;7.970;2023-05-07T02:26:40;30.93;;;18.13;;
16514;SDS011;8370;52.556;7.970;2023-05-07T02:29:06;31.33;;;17.20;;
16514;SDS011;8370;52.556;7.970;2023-05-07T02:31:31;28.87;;;17.20;;
16514;SDS011;8370;52.556;7.970;2023-05-07T02:33:58;33.73;;;16.97;;
16514;SDS011;8370;52.556;7.970;2023-05-07T02:36:24;30.40;;;18.80;;
16514;SDS011;8370;52.556;7.970;2023-05-07T02:38:50;29.47;;;17.57;;
16514;SDS011;8370;52.556;7.970;2023-05-07T02:41:15;32.90;;;18.23;;
16514;SDS011;8370;52.556;7.970;2023-05-07T02:43:41;29.37;;;16.20;;
16514;SDS011;8370;52.556;7.970;2023-05-07T02:46:07;35.50;;;18.43;;
16514;SDS011;8370;52.556;7.970;2023-05-07T02:48:33;32.23;;;17.37;;
16514;SDS011;8370;52.556;7.970;2023-05-07T02:50:59;34.03;;;17.80;;
16514;SDS011;8370;52.556;7.970;2023-05-07T02:53:25;35.60;;;18.53;;
16514;SDS011;8370;52.556;7.970;2023-05-07T02:55:52;31.97;;;17.87;;
16514;SDS011;8370;52.556;7.970;2023-05-07T02:58:18;32.03;;;19.17;;
16514;SDS011;8370;52.556;7.970;2023-05-07T03:00:43;39.90;;;20.27;;
16514;SDS011;8370;52.556;7.970;2023-05-07T03:03:09;31.93;;;18.03;;
16514;SDS011;8370;52.556;7.970;2023-05-07T03:05:35;31.67;;;18.57;;
16514;SDS011;8370;52.556;7.970;2023-05-07T03:08:01;30.20;;;17.43;;
16514;SDS011;8370;52.556;7.970;2023-05-07T03:10:26;33.53;;;18.73;;
16514;SDS011;8370;52.556;7.970;2023-05-07T03:12:52;32.87;;;18.47;;
16514;SDS011;8370;52.556;7.970;2023-05-07T03:15:17;35.40;;;19.87;;
16514;SDS011;8370;52.556;7.970;2023-05-07T03:17:43;44.27;;;22.07;;
16514;SDS011;8370;52.556;7.970;2023-05-07T03:20:08;38.83;;;21.53;;
16514;SDS011;8370;52.556;7.970;2023-05-07T03:22:34;37.20;;;20.83;;
16514;SDS011;8370;52.556;7.970;2023-05-07T03:25:00;37.57;;;21.57;;
16514;SDS011;8370;52.556;7.970;2023-05-07T03:27:25;42.87;;;21.87;;
16514;SDS011;8370;52.556;7.970;2023-05-07T03:29:51;39.47;;;21.33;;
16514;SDS011;8370;52.556;7.970;2023-05-07T03:32:16;40.43;;;22.67;;
16514;SDS011;8370;52.556;7.970;2023-05-07T03:34:42;44.80;;;23.13;;
16514;SDS011;8370;52.556;7.970;2023-05-07T03:37:07;43.70;;;23.10;;
16514;SDS011;8370;52.556;7.970;2023-05-07T03:39:33;40.47;;;21.87;;
16514;SDS011;8370;52.556;7.970;2023-05-07T03:41:58;42.27;;;22.23;;
16514;SDS011;8370;52.556;7.970;2023-05-07T03:44:24;42.93;;;22.83;;
16514;SDS011;8370;52.556;7.970;2023-05-07T03:46:49;40.17;;;20.03;;
16514;SDS011;8370;52.556;7.970;2023-05-07T03:49:15;36.23;;;20.13;;
16514;SDS011;8370;52.556;7.970;2023-05-07T03:51:40;36.40;;;20.00;;
16514;SDS011;8370;52.556;7.970;2023-05-07T03:54:06;36.47;;;19.93;;
16514;SDS011;8370;52.556;7.970;2023-05-07T03:56:32;37.57;;;20.67;;
16514;SDS011;8370;52.556;7.970;2023-05-07T03:58:57;38.57;;;21.90;;
16514;SDS011;8370;52.556;7.970;2023-05-07T04:01:23;40.50;;;21.67;;
16514;SDS011;8370;52.556;7.970;2023-05-07T04:03:48;41.80;;;21.13;;
16514;SDS011;8370;52.556;7.970;2023-05-07T04:06:15;37.90;;;20.77;;
16514;SDS011;8370;52.556;7.970;2023-05-07T04:08:41;48.20;;;24.33;;
16514;SDS011;8370;52.556;7.970;2023-05-07T04:11:07;39.57;;;21.63;;
16514;SDS011;8370;52.556;7.970;2023-05-07T04:13:32;50.47;;;23.93;;
16514;SDS011;8370;52.556;7.970;2023-05-07T04:15:58;45.80;;;22.70;;
16514;SDS011;8370;52.556;7.970;2023-05-07T04:18:26;43.57;;;23.07;;
16514;SDS011;8370;52.556;7.970;2023-05-07T04:20:52;45.10;;;22.10;;
16514;SDS011;8370;52.556;7.970;2023-05-07T04:23:17;45.20;;;24.30;;
16514;SDS011;8370;52.556;7.970;2023-05-07T04:25:42;46.37;;;23.80;;
16514;SDS011;8370;52.556;7.970;2023-05-07T04:28:08;43.10;;;23.33;;
16514;SDS011;8370;52.556;7.970;2023-05-07T04:30:33;47.33;;;24.47;;
16514;SDS011;8370;52.556;7.970;2023-05-07T04:32:59;52.23;;;25.13;;
16514;SDS011;8370;52.556;7.970;2023-05-07T04:35:25;50.80;;;23.33;;
16514;SDS011;8370;52.556;7.970;2023-05-07T04:37:50;51.13;;;24.60;;
16514;SDS011;8370;52.556;7.970;2023-05-07T04:40:15;46.50;;;23.50;;
16514;SDS011;8370;52.556;7.970;2023-05-07T04:42:41;48.90;;;24.57;;
16514;SDS011;8370;52.556;7.970;2023-05-07T04:45:07;50.37;;;23.57;;
16514;SDS011;8370;52.556;7.970;2023-05-07T04:47:33;50.40;;;25.27;;
16514;SDS011;8370;52.556;7.970;2023-05-07T04:49:59;50.57;;;23.03;;
16514;SDS011;8370;52.556;7.970;2023-05-07T04:52:24;48.93;;;22.67;;
16514;SDS011;8370;52.556;7.970;2023-05-07T04:54:50;49.60;;;23.47;;
16514;SDS011;8370;52.556;7.970;2023-05-07T04:57:15;49.40;;;24.67;;
16514;SDS011;8370;52.556;7.970;2023-05-07T04:59:42;46.70;;;23.70;;
16514;SDS011;8370;52.556;7.970;2023-05-07T05:02:08;45.10;;;23.83;;
16514;SDS011;8370;52.556;7.970;2023-05-07T05:04:34;46.27;;;24.33;;
16514;SDS011;8370;52.556;7.970;2023-05-07T05:07:00;45.87;;;24.13;;
16514;SDS011;8370;52.556;7.970;2023-05-07T05:09:25;47.57;;;22.70;;
16514;SDS011;8370;52.556;7.970;2023-05-07T05:11:51;46.07;;;22.40;;
16514;SDS011;8370;52.556;7.970;2023-05-07T05:14:16;42.47;;;21.63;;
16514;SDS011;8370;52.556;7.970;2023-05-07T05:16:42;48.80;;;24.13;;
16514;SDS011;8370;52.556;7.970;2023-05-07T05:19:07;45.00;;;23.23;;
16514;SDS011;8370;52.556;7.970;2023-05-07T05:21:33;40.70;;;21.60;;
16514;SDS011;8370;52.556;7.970;2023-05-07T05:23:58;48.33;;;23.97;;
16514;SDS011;8370;52.556;7.970;2023-05-07T05:26:24;40.53;;;21.10;;
16514;SDS011;8370;52.556;7.970;2023-05-07T05:28:49;40.63;;;21.43;;
16514;SDS011;8370;52.556;7.970;2023-05-07T05:31:16;40.40;;;19.93;;
16514;SDS011;8370;52.556;7.970;2023-05-07T05:33:41;40.53;;;21.33;;
16514;SDS011;8370;52.556;7.970;2023-05-07T05:36:08;38.97;;;20.43;;
16514;SDS011;8370;52.556;7.970;2023-05-07T05:38:34;42.00;;;21.63;;
16514;SDS011;8370;52.556;7.970;2023-05-07T05:41:00;39.67;;;21.40;;
16514;SDS011;8370;52.556;7.970;2023-05-07T05:43:25;36.20;;;19.83;;
16514;SDS011;8370;52.556;7.970;2023-05-07T05:45:51;41.63;;;21.87;;
16514;SDS011;8370;52.556;7.970;2023-05-07T05:48:16;38.10;;;18.13;;
16514;SDS011;8370;52.556;7.970;2023-05-07T05:50:42;37.57;;;19.97;;
16514;SDS011;8370;52.556;7.970;2023-05-07T05:53:07;37.63;;;20.13;;
16514;SDS011;8370;52.556;7.970;2023-05-07T05:55:33;40.47;;;19.40;;
16514;SDS011;8370;52.556;7.970;2023-05-07T05:58:00;36.13;;;20.20;;
16514;SDS011;8370;52.556;7.970;2023-05-07T06:00:26;31.43;;;18.57;;
16514;SDS011;8370;52.556;7.970;2023-05-07T06:02:52;37.53;;;19.57;;
16514;SDS011;8370;52.556;7.970;2023-05-07T06:05:17;44.87;;;21.60;;
16514;SDS011;8370;52.556;7.970;2023-05-07T06:07:43;41.27;;;21.00;;
16514;SDS011;8370;52.556;7.970;2023-05-07T06:10:08;33.03;;;18.17;;
16514;SDS011;8370;52.556;7.970;2023-05-07T06:12:34;34.33;;;18.13;;
16514;SDS011;8370;52.556;7.970;2023-05-07T06:14:59;39.07;;;19.63;;
16514;SDS011;8370;52.556;7.970;2023-05-07T06:17:25;36.80;;;18.57;;
16514;SDS011;8370;52.556;7.970;2023-05-07T06:19:50;37.40;;;19.73;;
16514;SDS011;8370;52.556;7.970;2023-05-07T06:22:17;36.13;;;20.13;;
16514;SDS011;8370;52.556;7.970;2023-05-07T06:24:42;31.63;;;18.83;;
16514;SDS011;8370;52.556;7.970;2023-05-07T06:27:08;32.33;;;17.70;;
16514;SDS011;8370;52.556;7.970;2023-05-07T06:29:33;36.53;;;18.03;;
16514;SDS011;8370;52.556;7.970;2023-05-07T06:32:12;31.17;;;17.77;;
16514;SDS011;8370;52.556;7.970;2023-05-07T06:34:38;32.30;;;17.73;;
16514;SDS011;8370;52.556;7.970;2023-05-07T06:37:04;33.17;;;17.57;;
16514;SDS011;8370;52.556;7.970;2023-05-07T06:39:30;30.83;;;17.43;;
16514;SDS011;8370;52.556;7.970;2023-05-07T06:41:56;31.97;;;17.73;;
16514;SDS011;8370;52.556;7.970;2023-05-07T06:44:22;33.70;;;18.67;;
16514;SDS011;8370;52.556;7.970;2023-05-07T06:46:47;27.73;;;16.30;;
16514;SDS011;8370;52.556;7.970;2023-05-07T06:49:13;33.30;;;18.20;;
16514;SDS011;8370;52.556;7.970;2023-05-07T06:51:39;33.87;;;19.07;;
16514;SDS011;8370;52.556;7.970;2023-05-07T06:54:04;32.33;;;18.50;;
16514;SDS011;8370;52.556;7.970;2023-05-07T06:56:31;32.40;;;19.33;;
16514;SDS011;8370;52.556;7.970;2023-05-07T06:58:57;31.50;;;17.53;;
16514;SDS011;8370;52.556;7.970;2023-05-07T07:01:22;31.63;;;16.87;;
16514;SDS011;8370;52.556;7.970;2023-05-07T07:03:48;30.23;;;17.57;;
16514;SDS011;8370;52.556;7.970;2023-05-07T07:06:13;33.93;;;18.47;;
16514;SDS011;8370;52.556;7.970;2023-05-07T07:08:39;29.17;;;17.93;;
16514;SDS011;8370;52.556;7.970;2023-05-07T07:11:05;28.73;;;16.43;;
16514;SDS011;8370;52.556;7.970;2023-05-07T07:13:31;29.67;;;17.63;;
16514;SDS011;8370;52.556;7.970;2023-05-07T07:15:56;28.50;;;17.30;;
16514;SDS011;8370;52.556;7.970;2023-05-07T07:18:22;28.63;;;16.43;;
16514;SDS011;8370;52.556;7.970;2023-05-07T07:20:47;33.07;;;19.03;;
16514;SDS011;8370;52.556;7.970;2023-05-07T07:23:13;29.77;;;16.60;;
16514;SDS011;8370;52.556;7.970;2023-05-07T07:25:39;27.90;;;16.27;;
16514;SDS011;8370;52.556;7.970;2023-05-07T07:28:05;33.00;;;16.97;;
16514;SDS011;8370;52.556;7.970;2023-05-07T07:30:30;27.00;;;15.97;;
16514;SDS011;8370;52.556;7.970;2023-05-07T07:32:56;29.27;;;16.47;;
16514;SDS011;8370;52.556;7.970;2023-05-07T07:35:27;32.17;;;17.03;;
16514;SDS011;8370;52.556;7.970;2023-05-07T07:37:55;30.93;;;17.73;;
16514;SDS011;8370;52.556;7.970;2023-05-07T07:40:21;22.03;;;14.73;;
16514;SDS011;8370;52.556;7.970;2023-05-07T07:42:47;29.77;;;16.83;;
16514;SDS011;8370;52.556;7.970;2023-05-07T07:45:12;28.10;;;16.70;;
16514;SDS011;8370;52.556;7.970;2023-05-07T07:47:39;31.13;;;16.80;;
16514;SDS011;8370;52.556;7.970;2023-05-07T07:50:05;27.53;;;16.57;;
16514;SDS011;8370;52.556;7.970;2023-05-07T07:52:31;29.10;;;17.33;;
16514;SDS011;8370;52.556;7.970;2023-05-07T07:54:57;29.57;;;16.83;;
16514;SDS011;8370;52.556;7.970;2023-05-07T07:57:23;30.40;;;17.13;;
16514;SDS011;8370;52.556;7.970;2023-05-07T07:59:48;30.43;;;17.90;;
16514;SDS011;8370;52.556;7.970;2023-05-07T08:02:15;31.57;;;17.53;;
16514;SDS011;8370;52.556;7.970;2023-05-07T08:04:40;29.07;;;16.73;;
16514;SDS011;8370;52.556;7.970;2023-05-07T08:07:08;27.23;;;16.13;;
16514;SDS011;8370;52.556;7.970;2023-05-07T08:09:34;26.03;;;16.30;;
16514;SDS011;8370;52.556;7.970;2023-05-07T08:12:00;27.47;;;16.73;;
16514;SDS011;8370;52.556;7.970;2023-05-07T08:14:26;28.60;;;16.77;;
16514;SDS011;8370;52.556;7.970;2023-05-07T08:16:53;29.50;;;17.37;;
16514;SDS011;8370;52.556;7.970;2023-05-07T08:19:19;34.03;;;17.17;;
16514;SDS011;8370;52.556;7.970;2023-05-07T08:21:45;27.40;;;17.17;;
16514;SDS011;8370;52.556;7.970;2023-05-07T08:24:12;25.87;;;15.30;;
16514;SDS011;8370;52.556;7.970;2023-05-07T08:26:41;28.77;;;16.13;;
16514;SDS011;8370;52.556;7.970;2023-05-07T08:29:07;23.27;;;13.57;;
16514;SDS011;8370;52.556;7.970;2023-05-07T08:31:33;24.40;;;14.83;;
16514;SDS011;8370;52.556;7.970;2023-05-07T08:33:58;24.47;;;14.23;;
16514;SDS011;8370;52.556;7.970;2023-05-07T08:36:24;25.90;;;15.43;;
16514;SDS011;8370;52.556;7.970;2023-05-07T08:38:53;28.23;;;16.37;;
16514;SDS011;8370;52.556;7.970;2023-05-07T08:41:19;25.93;;;15.53;;
16514;SDS011;8370;52.556;7.970;2023-05-07T08:43:47;32.17;;;16.90;;
16514;SDS011;8370;52.556;7.970;2023-05-07T08:46:17;29.73;;;17.07;;
16514;SDS011;8370;52.556;7.970;2023-05-07T08:48:44;27.83;;;15.00;;
16514;SDS011;8370;52.556;7.970;2023-05-07T08:51:15;26.63;;;15.67;;
16514;SDS011;8370;52.556;7.970;2023-05-07T08:53:42;26.90;;;14.17;;
16514;SDS011;8370;52.556;7.970;2023-05-07T08:56:08;25.87;;;15.33;;
16514;SDS011;8370;52.556;7.970;2023-05-07T08:58:35;25.17;;;14.17;;
16514;SDS011;8370;52.556;7.970;2023-05-07T09:01:07;21.60;;;13.43;;
16514;SDS011;8370;52.556;7.970;2023-05-07T09:03:33;25.83;;;15.17;;
16514;SDS011;8370;52.556;7.970;2023-05-07T09:05:59;21.93;;;14.17;;
16514;SDS011;8370;52.556;7.970;2023-05-07T09:08:25;22.83;;;14.87;;
16514;SDS011;8370;52.556;7.970;2023-05-07T09:10:52;20.30;;;12.50;;
16514;SDS011;8370;52.556;7.970;2023-05-07T09:13:18;30.13;;;15.97;;
16514;SDS011;8370;52.556;7.970;2023-05-07T09:15:44;23.57;;;15.20;;
16514;SDS011;8370;52.556;7.970;2023-05-07T09:18:10;22.77;;;12.43;;
16514;SDS011;8370;52.556;7.970;2023-05-07T09:20:37;20.37;;;12.80;;
16514;SDS011;8370;52.556;7.970;2023-05-07T09:23:05;22.03;;;13.97;;
16514;SDS011;8370;52.556;7.970;2023-05-07T09:25:32;19.67;;;13.60;;
16514;SDS011;8370;52.556;7.970;2023-05-07T09:27:59;21.93;;;13.57;;
16514;SDS011;8370;52.556;7.970;2023-05-07T09:30:28;23.30;;;14.07;;
16514;SDS011;8370;52.556;7.970;2023-05-07T09:32:58;19.70;;;13.13;;
16514;SDS011;8370;52.556;7.970;2023-05-07T09:35:25;18.47;;;13.57;;
16514;SDS011;8370;52.556;7.970;2023-05-07T09:37:54;23.40;;;14.87;;
16514;SDS011;8370;52.556;7.970;2023-05-07T09:40:25;20.43;;;13.43;;
16514;SDS011;8370;52.556;7.970;2023-05-07T09:42:52;21.63;;;12.20;;
16514;SDS011;8370;52.556;7.970;2023-05-07T09:45:21;18.73;;;12.30;;
16514;SDS011;8370;52.556;7.970;2023-05-07T09:47:48;16.83;;;11.50;;
16514;SDS011;8370;52.556;7.970;2023-05-07T09:50:18;21.50;;;12.43;;
16514;SDS011;8370;52.556;7.970;2023-05-07T09:52:46;21.63;;;13.03;;
16514;SDS011;8370;52.556;7.970;2023-05-07T09:55:12;16.03;;;11.90;;
16514;SDS011;8370;52.556;7.970;2023-05-07T09:57:38;17.40;;;11.23;;
16514;SDS011;8370;52.556;7.970;2023-05-07T10:00:06;22.47;;;13.10;;
16514;SDS011;8370;52.556;7.970;2023-05-07T10:02:33;19.73;;;11.33;;
16514;SDS011;8370;52.556;7.970;2023-05-07T10:05:01;19.20;;;11.67;;
16514;SDS011;8370;52.556;7.970;2023-05-07T10:07:28;17.03;;;11.13;;
16514;SDS011;8370;52.556;7.970;2023-05-07T10:09:55;17.07;;;12.17;;
16514;SDS011;8370;52.556;7.970;2023-05-07T10:12:20;19.47;;;11.20;;
16514;SDS011;8370;52.556;7.970;2023-05-07T10:14:46;14.63;;;10.03;;
16514;SDS011;8370;52.556;7.970;2023-05-07T10:17:13;16.77;;;11.07;;
16514;SDS011;8370;52.556;7.970;2023-05-07T10:19:42;15.87;;;9.87;;
16514;SDS011;8370;52.556;7.970;2023-05-07T10:22:09;14.83;;;9.33;;
16514;SDS011;8370;52.556;7.970;2023-05-07T10:24:36;13.73;;;10.33;;
16514;SDS011;8370;52.556;7.970;2023-05-07T10:27:03;14.77;;;10.03;;
16514;SDS011;8370;52.556;7.970;2023-05-07T10:29:39;15.97;;;10.33;;
16514;SDS011;8370;52.556;7.970;2023-05-07T10:34:58;15.23;;;10.30;;
16514;SDS011;8370;52.556;7.970;2023-05-07T10:37:27;13.30;;;8.93;;
16514;SDS011;8370;52.556;7.970;2023-05-07T10:39:53;13.07;;;8.33;;
16514;SDS011;8370;52.556;7.970;2023-05-07T10:42:19;10.43;;;5.97;;
16514;SDS011;8370;52.556;7.970;2023-05-07T10:44:45;12.37;;;8.27;;
16514;SDS011;8370;52.556;7.970;2023-05-07T10:47:11;14.53;;;9.40;;
16514;SDS011;8370;52.556;7.970;2023-05-07T10:52:20;15.50;;;10.37;;
16514;SDS011;8370;52.556;7.970;2023-05-07T10:55:18;14.37;;;9.67;;
16514;SDS011;8370;52.556;7.970;2023-05-07T10:57:42;14.83;;;8.47;;
16514;SDS011;8370;52.556;7.970;2023-05-07T11:00:40;13.20;;;8.40;;
16514;SDS011;8370;52.556;7.970;2023-05-07T11:05:30;12.60;;;8.27;;
16514;SDS011;8370;52.556;7.970;2023-05-07T11:07:57;11.23;;;8.50;;
16514;SDS011;8370;52.556;7.970;2023-05-07T11:13:40;12.77;;;8.37;;
16514;SDS011;8370;52.556;7.970;2023-05-07T11:16:19;11.20;;;7.87;;
16514;SDS011;8370;52.556;7.970;2023-05-07T11:18:46;13.13;;;7.47;;
16514;SDS011;8370;52.556;7.970;2023-05-07T11:21:18;10.87;;;7.83;;
16514;SDS011;8370;52.556;7.970;2023-05-07T11:23:56;12.10;;;8.50;;
16514;SDS011;8370;52.556;7.970;2023-05-07T11:26:22;13.10;;;8.83;;
16514;SDS011;8370;52.556;7.970;2023-05-07T11:28:48;10.37;;;8.00;;
16514;SDS011;8370;52.556;7.970;2023-05-07T11:31:15;12.07;;;7.93;;
16514;SDS011;8370;52.556;7.970;2023-05-07T11:33:47;11.77;;;8.20;;
16514;SDS011;8370;52.556;7.970;2023-05-07T11:36:13;12.40;;;8.03;;
16514;SDS011;8370;52.556;7.970;2023-05-07T11:38:38;11.60;;;8.03;;
16514;SDS011;8370;52.556;7.970;2023-05-07T11:41:04;10.73;;;7.80;;
16514;SDS011;8370;52.556;7.970;2023-05-07T11:43:30;16.20;;;8.23;;
16514;SDS011;8370;52.556;7.970;2023-05-07T11:46:04;10.67;;;7.93;;
16514;SDS011;8370;52.556;7.970;2023-05-07T11:48:34;10.87;;;8.10;;
16514;SDS011;8370;52.556;7.970;2023-05-07T11:51:00;9.43;;;7.20;;
16514;SDS011;8370;52.556;7.970;2023-05-07T11:53:31;11.80;;;8.03;;
16514;SDS011;8370;52.556;7.970;2023-05-07T11:56:10;10.50;;;7.60;;
16514;SDS011;8370;52.556;7.970;2023-05-07T11:58:37;10.83;;;7.67;;
16514;SDS011;8370;52.556;7.970;2023-05-07T12:01:03;12.30;;;8.10;;
16514;SDS011;8370;52.556;7.970;2023-05-07T12:03:29;11.17;;;7.97;;
16514;SDS011;8370;52.556;7.970;2023-05-07T12:05:54;13.57;;;8.30;;
16514;SDS011;8370;52.556;7.970;2023-05-07T12:08:20;11.10;;;7.73;;
16514;SDS011;8370;52.556;7.970;2023-05-07T12:10:47;11.27;;;7.57;;
16514;SDS011;8370;52.556;7.970;2023-05-07T12:13:17;12.03;;;8.17;;
16514;SDS011;8370;52.556;7.970;2023-05-07T12:15:44;12.60;;;8.30;;
16514;SDS011;8370;52.556;7.970;2023-05-07T12:18:10;14.17;;;9.13;;
16514;SDS011;8370;52.556;7.970;2023-05-07T12:20:36;12.30;;;8.70;;
16514;SDS011;8370;52.556;7.970;2023-05-07T12:23:02;12.73;;;8.93;;
16514;SDS011;8370;52.556;7.970;2023-05-07T12:25:31;13.37;;;9.33;;
16514;SDS011;8370;52.556;7.970;2023-05-07T12:28:00;13.73;;;9.60;;
16514;SDS011;8370;52.556;7.970;2023-05-07T12:30:26;13.83;;;9.10;;
16514;SDS011;8370;52.556;7.970;2023-05-07T12:32:54;14.20;;;9.60;;
16514;SDS011;8370;52.556;7.970;2023-05-07T12:35:29;14.97;;;10.00;;
16514;SDS011;8370;52.556;7.970;2023-05-07T12:38:12;15.23;;;10.77;;
16514;SDS011;8370;52.556;7.970;2023-05-07T12:43:05;14.13;;;10.80;;
16514;SDS011;8370;52.556;7.970;2023-05-07T12:45:30;15.87;;;11.27;;
16514;SDS011;8370;52.556;7.970;2023-05-07T12:47:56;16.67;;;11.13;;
16514;SDS011;8370;52.556;7.970;2023-05-07T12:50:30;17.07;;;11.57;;
16514;SDS011;8370;52.556;7.970;2023-05-07T12:52:56;14.90;;;10.80;;
16514;SDS011;8370;52.556;7.970;2023-05-07T12:55:22;17.60;;;12.30;;
16514;SDS011;8370;52.556;7.970;2023-05-07T12:57:48;14.53;;;11.73;;
16514;SDS011;8370;52.556;7.970;2023-05-07T13:00:15;13.73;;;10.80;;
16514;SDS011;8370;52.556;7.970;2023-05-07T13:02:41;19.80;;;10.40;;
16514;SDS011;8370;52.556;7.970;2023-05-07T13:05:09;13.93;;;8.98;;
16514;SDS011;8370;52.556;7.970;2023-05-07T13:07:35;12.32;;;10.25;;
16514;SDS011;8370;52.556;7.970;2023-05-07T13:10:02;13.65;;;10.65;;
16514;SDS011;8370;52.556;7.970;2023-05-07T13:12:27;15.55;;;11.00;;
16514;SDS011;8370;52.556;7.970;2023-05-07T13:14:53;11.98;;;8.90;;
16514;SDS011;8370;52.556;7.970;2023-05-07T13:17:18;13.05;;;9.68;;
16514;SDS011;8370;52.556;7.970;2023-05-07T13:19:44;11.85;;;9.00;;
16514;SDS011;8370;52.556;7.970;2023-05-07T13:22:09;11.30;;;8.35;;
16514;SDS011;8370;52.556;7.970;2023-05-07T13:24:35;10.75;;;8.73;;
16514;SDS011;8370;52.556;7.970;2023-05-07T13:27:01;11.02;;;8.25;;
16514;SDS011;8370;52.556;7.970;2023-05-07T13:29:26;12.80;;;8.73;;
16514;SDS011;8370;52.556;7.970;2023-05-07T13:31:58;9.10;;;7.38;;
16514;SDS011;8370;52.556;7.970;2023-05-07T13:34:24;1.48;;;1.10;;
16514;SDS011;8370;52.556;7.970;2023-05-07T13:36:50;13.27;;;8.95;;
16514;SDS011;8370;52.556;7.970;2023-05-07T13:39:15;8.00;;;6.70;;
16514;SDS011;8370;52.556;7.970;2023-05-07T13:41:41;13.68;;;9.25;;
16514;SDS011;8370;52.556;7.970;2023-05-07T13:44:07;11.30;;;7.20;;
16514;SDS011;8370;52.556;7.970;2023-05-07T13:46:32;11.50;;;8.57;;
16514;SDS011;8370;52.556;7.970;2023-05-07T13:48:58;11.13;;;8.13;;
16514;SDS011;8370;52.556;7.970;2023-05-07T13:51:23;12.23;;;8.48;;
16514;SDS011;8370;52.556;7.970;2023-05-07T13:53:49;9.60;;;7.15;;
16514;SDS011;8370;52.556;7.970;2023-05-07T13:56:15;9.35;;;7.07;;
16514;SDS011;8370;52.556;7.970;2023-05-07T13:58:40;10.40;;;8.60;;
16514;SDS011;8370;52.556;7.970;2023-05-07T14:01:06;10.23;;;8.73;;
16514;SDS011;8370;52.556;7.970;2023-05-07T14:03:31;11.30;;;8.82;;
16514;SDS011;8370;52.556;7.970;2023-05-07T14:05:58;10.27;;;7.95;;
16514;SDS011;8370;52.556;7.970;2023-05-07T14:08:26;1.08;;;0.98;;
16514;SDS011;8370;52.556;7.970;2023-05-07T14:10:52;10.68;;;8.27;;
16514;SDS011;8370;52.556;7.970;2023-05-07T14:13:17;9.43;;;8.43;;
16514;SDS011;8370;52.556;7.970;2023-05-07T14:15:43;2.45;;;1.83;;
16514;SDS011;8370;52.556;7.970;2023-05-07T14:18:13;0.30;;;0.30;;
16514;SDS011;8370;52.556;7.970;2023-05-07T14:20:38;1.42;;;1.33;;
16514;SDS011;8370;52.556;7.970;2023-05-07T14:23:04;0.20;;;0.20;;
16514;SDS011;8370;52.556;7.970;2023-05-07T14:25:29;1.15;;;0.90;;
16514;SDS011;8370;52.556;7.970;2023-05-07T14:27:55;8.50;;;4.03;;
16514;SDS011;8370;52.556;7.970;2023-05-07T14:30:20;1.75;;;1.35;;
16514;SDS011;8370;52.556;7.970;2023-05-07T14:32:49;1.65;;;1.25;;
16514;SDS011;8370;52.556;7.970;2023-05-07T14:35:15;0.88;;;0.88;;
16514;SDS011;8370;52.556;7.970;2023-05-07T14:37:40;2.97;;;2.72;;
16514;SDS011;8370;52.556;7.970;2023-05-07T14:40:06;2.03;;;1.60;;
16514;SDS011;8370;52.556;7.970;2023-05-07T14:42:32;1.33;;;0.80;;
16514;SDS011;8370;52.556;7.970;2023-05-07T14:44:57;1.53;;;1.43;;
16514;SDS011;8370;52.556;7.970;2023-05-07T14:47:23;3.77;;;2.37;;
16514;SDS011;8370;52.556;7.970;2023-05-07T14:49:48;2.37;;;2.17;;
16514;SDS011;8370;52.556;7.970;2023-05-07T14:52:14;1.73;;;1.63;;